Time;durP1;ratioP1;P1;durP2;ratioP2;P2;SDS_P1;SDS_P2;PMS_P1;PMS_P2;Temp;Humidity;BMP_temperature;BMP_pressure;BME280_temperature;BME280_humidity;BME280_pressure;Samples;Min_cycle;Max_cycle;Signal;HPM_P1;HPM_P2
2023/07/29 00:01:34;;;;;;;9.55;5.10;;;18.60;99.90;;;;;;5091791;28;20089;-66
2023/07/29 00:03:59;;;;;;;7.55;4.38;;;18.60;99.90;;;;;;5092839;28;20040;-65
2023/07/29 00:06:26;;;;;;;7.10;3.97;;;18.60;99.90;;;;;;5115320;27;20392;-66
2023/07/29 00:08:57;;;;;;;8.30;4.72;;;18.60;99.90;;;;;;5083920;28;20043;-66
2023/07/29 00:11:23;;;;;;;8.85;4.45;;;18.70;99.90;;;;;;5108533;28;20119;-66
2023/07/29 00:13:50;;;;;;;8.00;4.60;;;18.60;99.90;;;;;;5091069;28;20131;-66
2023/07/29 00:16:17;;;;;;;9.70;4.88;;;18.60;99.90;;;;;;5091931;28;20464;-66
2023/07/29 00:18:43;;;;;;;8.50;4.90;;;18.60;99.90;;;;;;5092198;28;20086;-65
2023/07/29 00:21:09;;;;;;;8.25;5.55;;;18.60;99.90;;;;;;5091653;28;20044;-66
2023/07/29 00:23:34;;;;;;;9.68;4.95;;;18.60;99.90;;;;;;5090024;28;20046;-66
2023/07/29 00:26:00;;;;;;;8.98;5.60;;;18.50;99.90;;;;;;5124919;27;20044;-66
2023/07/29 00:28:26;;;;;;;9.30;5.57;;;18.50;99.90;;;;;;5125366;27;20093;-66
2023/07/29 00:30:51;;;;;;;10.23;5.63;;;18.50;99.90;;;;;;5073052;28;20051;-66
2023/07/29 00:33:17;;;;;;;9.85;6.38;;;18.50;99.90;;;;;;5091450;28;20032;-66
2023/07/29 00:35:43;;;;;;;11.68;6.00;;;18.50;99.90;;;;;;5090691;28;20044;-66
2023/07/29 00:38:08;;;;;;;9.07;5.75;;;18.50;99.90;;;;;;5091696;28;20036;-66
2023/07/29 00:40:36;;;;;;;9.40;5.97;;;18.50;99.90;;;;;;5091745;28;20040;-66
2023/07/29 00:43:01;;;;;;;10.32;6.13;;;18.40;99.90;;;;;;5090693;28;20044;-65
2023/07/29 00:45:30;;;;;;;12.57;5.95;;;18.40;99.90;;;;;;5090150;28;20055;-66
2023/07/29 00:47:56;;;;;;;9.77;5.95;;;18.40;99.90;;;;;;5090916;28;20050;-66
2023/07/29 00:50:22;;;;;;;9.80;5.97;;;18.40;99.90;;;;;;5092069;28;20027;-66
2023/07/29 00:52:49;;;;;;;9.45;5.40;;;18.40;99.90;;;;;;5089577;28;20044;-66
2023/07/29 00:55:15;;;;;;;8.77;5.55;;;18.40;99.90;;;;;;5091817;28;20115;-66
2023/07/29 00:57:42;;;;;;;9.45;5.25;;;18.40;99.90;;;;;;5090586;28;20043;-66
2023/07/29 01:00:08;;;;;;;10.88;6.40;;;18.40;99.90;;;;;;5092188;28;20130;-66
2023/07/29 01:02:35;;;;;;;8.98;5.50;;;18.40;99.90;;;;;;5090571;28;20044;-66
2023/07/29 01:05:02;;;;;;;10.32;5.30;;;18.40;99.90;;;;;;5089630;28;20040;-66
2023/07/29 01:07:46;;;;;;;8.85;4.72;;;18.30;99.90;;;;;;5091896;28;20485;-66
2023/07/29 01:10:19;;;;;;;;;;;18.30;99.90;;;;;;5092480;28;20085;-66
2023/07/29 01:13:02;;;;;;;9.30;4.72;;;18.30;99.90;;;;;;5089334;28;19998;-66
2023/07/29 01:15:43;;;;;;;8.98;4.28;;;18.20;99.90;;;;;;5073555;28;20073;-66
2023/07/29 01:18:23;;;;;;;9.82;5.35;;;18.20;99.90;;;;;;5090818;28;20052;-66
2023/07/29 01:20:53;;;;;;;10.50;6.05;;;18.20;99.90;;;;;;5090666;28;20040;-66
2023/07/29 01:23:29;;;;;;;10.93;5.65;;;18.20;99.90;;;;;;5090952;28;20072;-66
2023/07/29 01:25:55;;;;;;;11.38;6.47;;;18.20;99.90;;;;;;5089585;28;20477;-66
2023/07/29 01:28:21;;;;;;;10.73;6.07;;;18.20;99.90;;;;;;5090726;28;20115;-66
2023/07/29 01:30:51;;;;;;;10.02;6.18;;;18.20;99.90;;;;;;5091555;28;20047;-66
2023/07/29 01:33:25;;;;;;;10.32;6.20;;;18.10;99.90;;;;;;5090738;28;20073;-66
2023/07/29 01:35:52;;;;;;;11.52;6.72;;;18.20;99.90;;;;;;5090615;28;20046;-66
2023/07/29 01:38:24;;;;;;;14.73;7.25;;;18.20;99.90;;;;;;5094503;28;20082;-66
2023/07/29 01:40:52;;;;;;;9.93;6.72;;;18.20;99.90;;;;;;5094465;28;20108;-66
2023/07/29 01:43:23;;;;;;;15.90;7.95;;;18.20;99.90;;;;;;5094504;28;20407;-66
2023/07/29 01:45:49;;;;;;;13.52;9.13;;;18.20;99.90;;;;;;5093690;28;20044;-66
2023/07/29 01:48:14;;;;;;;13.93;8.57;;;18.20;99.90;;;;;;5093618;28;20058;-66
2023/07/29 01:50:40;;;;;;;15.48;10.48;;;18.20;99.90;;;;;;5093573;28;20056;-66
2023/07/29 01:53:06;;;;;;;13.23;9.07;;;18.20;99.90;;;;;;5077218;28;20397;-66
2023/07/29 01:55:31;;;;;;;14.77;9.10;;;18.20;99.90;;;;;;5094339;28;20036;-66
2023/07/29 01:57:58;;;;;;;11.48;8.52;;;18.20;99.90;;;;;;5077071;28;20395;-66
2023/07/29 02:00:24;;;;;;;11.48;8.38;;;18.20;99.90;;;;;;5095206;28;20036;-66
2023/07/29 02:02:49;;;;;;;13.10;8.43;;;18.20;99.90;;;;;;5092330;28;20495;-66
2023/07/29 02:05:15;;;;;;;14.70;8.25;;;18.20;99.90;;;;;;5128235;27;20148;-66
2023/07/29 02:07:41;;;;;;;11.75;8.05;;;18.20;99.90;;;;;;5094437;28;20032;-66
2023/07/29 02:10:07;;;;;;;10.45;7.28;;;18.20;99.90;;;;;;5094346;28;20039;-66
2023/07/29 02:12:33;;;;;;;12.90;8.18;;;18.10;99.90;;;;;;5093013;28;20032;-66
2023/07/29 02:14:59;;;;;;;11.45;7.80;;;18.10;99.90;;;;;;5092876;28;20036;-66
2023/07/29 02:17:26;;;;;;;13.27;7.70;;;18.10;99.90;;;;;;5093338;28;20048;-66
2023/07/29 02:19:52;;;;;;;12.45;6.97;;;18.20;99.90;;;;;;5093420;28;20430;-66
2023/07/29 02:22:18;;;;;;;12.38;7.00;;;18.10;99.90;;;;;;5092507;28;20040;-66
2023/07/29 02:24:44;;;;;;;12.00;6.43;;;18.10;99.90;;;;;;5094151;28;20036;-66
2023/07/29 02:27:10;;;;;;;14.18;7.18;;;18.10;99.90;;;;;;5094768;28;20493;-66
2023/07/29 02:29:36;;;;;;;9.75;6.90;;;18.10;99.90;;;;;;5093549;28;20044;-66
2023/07/29 02:32:03;;;;;;;9.98;7.07;;;18.10;99.90;;;;;;5094682;28;20028;-66
2023/07/29 02:34:29;;;;;;;14.63;7.22;;;18.10;99.90;;;;;;5094016;28;20044;-66
2023/07/29 02:36:55;;;;;;;10.25;6.38;;;18.10;99.90;;;;;;5092192;28;20115;-66
2023/07/29 02:39:20;;;;;;;11.45;7.05;;;18.00;99.90;;;;;;5094835;28;20465;-66
2023/07/29 02:41:46;;;;;;;11.95;7.75;;;18.00;99.90;;;;;;5093110;28;20040;-66
2023/07/29 02:44:12;;;;;;;11.88;7.65;;;18.00;99.90;;;;;;5093247;28;20082;-66
2023/07/29 02:46:37;;;;;;;14.75;8.38;;;18.00;99.90;;;;;;5093007;28;20393;-66
2023/07/29 02:49:03;;;;;;;11.15;9.02;;;17.90;99.90;;;;;;5092759;28;20040;-66
2023/07/29 02:51:30;;;;;;;12.95;8.85;;;18.00;99.90;;;;;;5091805;28;20044;-66
2023/07/29 02:53:56;;;;;;;12.50;8.77;;;17.90;99.90;;;;;;5093666;28;20516;-66
2023/07/29 02:56:21;;;;;;;13.48;8.73;;;17.80;99.90;;;;;;5092899;28;20040;-66
2023/07/29 02:58:47;;;;;;;12.73;8.07;;;17.80;99.90;;;;;;5092887;28;20044;-66
2023/07/29 03:01:13;;;;;;;12.13;8.60;;;17.80;99.90;;;;;;5094351;28;20032;-66
2023/07/29 03:03:39;;;;;;;14.35;9.40;;;17.80;99.90;;;;;;5092514;28;20396;-66
2023/07/29 03:06:07;;;;;;;12.98;9.20;;;17.70;99.90;;;;;;5125803;27;20097;-66
2023/07/29 03:08:34;;;;;;;15.98;9.02;;;17.70;99.90;;;;;;5093805;28;20043;-66
2023/07/29 03:11:06;;;;;;;16.88;8.00;;;17.70;99.90;;;;;;5092459;28;20042;-66
2023/07/29 03:13:32;;;;;;;14.70;8.52;;;17.60;99.90;;;;;;5126263;27;20036;-66
2023/07/29 03:16:12;;;;;;;15.35;7.53;;;17.60;99.90;;;;;;5093697;28;20044;-66
2023/07/29 03:18:38;;;;;;;10.35;6.55;;;17.60;99.90;;;;;;5125556;27;20046;-66
2023/07/29 03:21:04;;;;;;;13.60;6.88;;;17.50;99.90;;;;;;5093525;28;20097;-66
2023/07/29 03:23:31;;;;;;;9.68;5.22;;;17.40;99.90;;;;;;5092923;28;20063;-66
2023/07/29 03:25:58;;;;;;;9.90;5.68;;;17.40;99.90;;;;;;5091395;28;20473;-66
2023/07/29 03:28:27;;;;;;;9.70;5.45;;;17.40;99.90;;;;;;5093885;28;20032;-66
2023/07/29 03:30:53;;;;;;;12.63;5.68;;;17.40;99.90;;;;;;5092133;28;20048;-66
2023/07/29 03:33:19;;;;;;;13.13;6.82;;;17.40;99.90;;;;;;5091160;28;20040;-66
2023/07/29 03:35:45;;;;;;;9.27;6.05;;;17.30;99.90;;;;;;5091930;28;20051;-66
2023/07/29 03:38:11;;;;;;;13.15;6.53;;;17.30;99.90;;;;;;5093191;28;20529;-66
2023/07/29 03:40:41;;;;;;;11.00;5.13;;;17.30;99.90;;;;;;5092439;28;20040;-66
2023/07/29 03:43:07;;;;;;;10.55;6.57;;;17.30;99.90;;;;;;5093177;28;20036;-66
2023/07/29 03:45:34;;;;;;;11.27;5.97;;;17.20;99.90;;;;;;5093092;28;20036;-66
2023/07/29 03:48:00;;;;;;;11.35;5.88;;;17.20;99.90;;;;;;5090807;28;20044;-66
2023/07/29 03:50:27;;;;;;;10.38;5.10;;;17.20;99.90;;;;;;5091543;28;20044;-66
2023/07/29 03:52:53;;;;;;;11.13;5.07;;;17.20;99.90;;;;;;5091780;28;20117;-66
2023/07/29 03:55:19;;;;;;;10.40;5.18;;;17.20;99.90;;;;;;5091133;28;20044;-66
2023/07/29 03:57:44;;;;;;;11.32;5.40;;;17.20;99.90;;;;;;5091383;28;20039;-66
2023/07/29 04:00:10;;;;;;;8.85;5.20;;;17.20;99.90;;;;;;5092438;28;20039;-66
2023/07/29 04:02:37;;;;;;;11.38;5.10;;;17.20;99.90;;;;;;5090900;28;20048;-66
2023/07/29 04:05:04;;;;;;;8.48;4.20;;;17.20;99.90;;;;;;5091540;28;20052;-65
2023/07/29 04:07:30;;;;;;;8.80;4.55;;;17.20;99.90;;;;;;5091803;28;20044;-65
2023/07/29 04:09:56;;;;;;;8.95;4.45;;;17.20;99.90;;;;;;5092827;28;20032;-65
2023/07/29 04:12:23;;;;;;;11.10;4.28;;;17.20;99.90;;;;;;5091784;28;20122;-65
2023/07/29 04:14:49;;;;;;;9.80;3.92;;;17.20;99.90;;;;;;5090632;28;20046;-66
2023/07/29 04:17:14;;;;;;;16.90;5.18;;;17.20;99.90;;;;;;5092653;28;20118;-66
2023/07/29 04:19:40;;;;;;;10.45;4.57;;;17.20;99.90;;;;;;5091645;28;20096;-62
2023/07/29 04:22:06;;;;;;;8.10;4.00;;;17.20;99.90;;;;;;5090647;28;20373;-62
2023/07/29 04:24:31;;;;;;;8.50;3.97;;;17.20;99.90;;;;;;5091198;28;20574;-62
2023/07/29 04:26:57;;;;;;;6.82;3.72;;;17.20;99.90;;;;;;5091371;28;20469;-62
2023/07/29 04:29:23;;;;;;;7.68;3.40;;;17.20;99.90;;;;;;5091985;28;20043;-62
2023/07/29 04:31:52;;;;;;;6.93;3.10;;;17.20;99.90;;;;;;5073931;28;20043;-62
2023/07/29 04:34:18;;;;;;;7.65;3.70;;;17.20;99.90;;;;;;5091399;28;20048;-62
2023/07/29 04:36:45;;;;;;;7.30;3.33;;;17.20;99.90;;;;;;5089803;28;20047;-62
2023/07/29 04:39:11;;;;;;;6.78;3.35;;;17.20;99.90;;;;;;5092501;28;20115;-62
2023/07/29 04:41:36;;;;;;;6.28;3.13;;;17.30;99.90;;;;;;5090863;28;20111;-62
2023/07/29 04:44:02;;;;;;;8.98;3.25;;;17.30;99.90;;;;;;5089979;28;20036;-62
2023/07/29 04:46:28;;;;;;;8.32;3.13;;;17.30;99.90;;;;;;5090621;28;20044;-62
2023/07/29 04:48:53;;;;;;;7.78;2.60;;;17.20;99.90;;;;;;5090804;28;20165;-62
2023/07/29 04:51:19;;;;;;;6.80;2.83;;;17.20;99.90;;;;;;5090322;28;20126;-62
2023/07/29 04:53:45;;;;;;;7.90;3.08;;;17.20;99.90;;;;;;5091465;28;20036;-63
2023/07/29 04:56:11;;;;;;;7.15;2.95;;;17.20;99.90;;;;;;5090912;28;20050;-62
2023/07/29 04:58:37;;;;;;;7.00;2.70;;;17.30;99.90;;;;;;5091262;28;20043;-62
2023/07/29 05:01:03;;;;;;;7.25;3.13;;;17.30;99.90;;;;;;5090805;28;20036;-62
2023/07/29 05:03:29;;;;;;;10.88;3.70;;;17.30;99.90;;;;;;5091704;28;20036;-62
2023/07/29 05:05:57;;;;;;;8.65;3.10;;;17.30;99.90;;;;;;5091025;28;20138;-62
2023/07/29 05:08:22;;;;;;;7.50;3.13;;;17.30;99.90;;;;;;5092514;28;20036;-63
2023/07/29 05:10:52;;;;;;;7.72;3.40;;;17.30;99.90;;;;;;5090172;28;20040;-62
2023/07/29 05:13:18;;;;;;;13.50;3.40;;;17.30;99.90;;;;;;5096251;28;20040;-62
2023/07/29 05:15:44;;;;;;;7.88;3.03;;;17.30;99.90;;;;;;5094375;28;20052;-63
2023/07/29 05:18:10;;;;;;;11.32;3.50;;;17.30;99.90;;;;;;5095274;28;20051;-62
2023/07/29 05:20:36;;;;;;;9.60;3.17;;;17.30;99.90;;;;;;5095822;28;20537;-62
2023/07/29 05:23:07;;;;;;;8.20;3.75;;;17.40;99.90;;;;;;5094357;28;20119;-63
2023/07/29 05:25:34;;;;;;;8.43;3.00;;;17.40;99.90;;;;;;5073372;28;20041;-62
2023/07/29 05:28:01;;;;;;;6.50;3.13;;;17.40;99.90;;;;;;5083319;28;20047;-62
2023/07/29 05:30:30;;;;;;;6.72;2.80;;;17.40;99.90;;;;;;5094895;28;20168;-62
2023/07/29 05:32:57;;;;;;;10.02;3.00;;;17.40;99.90;;;;;;5093383;28;20040;-63
2023/07/29 05:35:23;;;;;;;7.80;3.05;;;17.50;99.90;;;;;;5094387;28;20044;-62
2023/07/29 05:37:48;;;;;;;9.68;3.83;;;17.50;99.90;;;;;;5094106;28;20377;-63
2023/07/29 05:40:14;;;;;;;14.27;3.05;;;17.50;99.90;;;;;;5127777;27;20121;-63
2023/07/29 05:42:45;;;;;;;11.77;3.70;;;17.50;99.90;;;;;;5094963;28;20040;-62
2023/07/29 05:45:16;;;;;;;9.55;3.00;;;17.50;99.90;;;;;;5095358;28;20043;-63
2023/07/29 05:47:42;;;;;;;13.88;3.50;;;17.50;99.90;;;;;;5076123;28;20036;-62
2023/07/29 05:50:08;;;;;;;8.20;3.50;;;17.60;99.90;;;;;;5095591;28;20039;-63
2023/07/29 05:52:34;;;;;;;9.07;3.08;;;17.50;99.90;;;;;;5128273;27;20043;-62
2023/07/29 05:55:00;;;;;;;8.60;3.45;;;17.60;99.90;;;;;;5093059;28;20424;-62
2023/07/29 05:57:25;;;;;;;7.55;3.58;;;17.60;99.90;;;;;;5094160;28;20408;-63
2023/07/29 05:59:51;;;;;;;13.55;3.65;;;17.60;99.90;;;;;;5094732;28;20472;-63
2023/07/29 06:02:17;;;;;;;10.48;3.75;;;17.60;99.90;;;;;;5094674;28;20496;-62
2023/07/29 06:04:42;;;;;;;9.50;3.30;;;17.70;99.90;;;;;;5093273;28;20036;-63
2023/07/29 06:07:08;;;;;;;10.00;4.13;;;17.70;99.90;;;;;;5127338;27;20400;-63
2023/07/29 06:09:34;;;;;;;9.30;3.25;;;17.70;99.90;;;;;;5093268;28;20044;-63
2023/07/29 06:12:00;;;;;;;10.90;3.85;;;17.70;99.90;;;;;;5094816;28;20408;-63
2023/07/29 06:14:26;;;;;;;9.00;3.38;;;17.80;99.90;;;;;;5122505;27;20488;-63
2023/07/29 06:16:51;;;;;;;10.38;3.55;;;18.00;99.90;;;;;;5092054;28;20044;-63
2023/07/29 06:19:19;;;;;;;9.18;3.83;;;18.20;99.90;;;;;;5092396;28;20043;-64
2023/07/29 06:21:45;;;;;;;10.02;3.50;;;18.30;99.90;;;;;;5090519;28;20043;-62
2023/07/29 06:24:11;;;;;;;9.75;3.58;;;18.40;99.90;;;;;;5089848;28;20044;-63
2023/07/29 06:26:36;;;;;;;11.52;3.67;;;18.30;99.90;;;;;;5090082;28;20032;-63
2023/07/29 06:29:02;;;;;;;7.32;3.92;;;18.30;99.90;;;;;;5098853;28;20044;-63
2023/07/29 06:31:29;;;;;;;10.35;4.25;;;18.30;99.90;;;;;;5081419;28;20028;-63
2023/07/29 06:33:55;;;;;;;9.07;3.55;;;18.30;99.90;;;;;;5089956;28;20036;-63
2023/07/29 06:36:20;;;;;;;9.10;3.58;;;18.40;99.90;;;;;;5090711;28;20043;-63
2023/07/29 06:38:46;;;;;;;9.10;3.90;;;18.40;99.90;;;;;;5089690;28;20156;-63
2023/07/29 06:41:12;;;;;;;13.57;4.60;;;18.60;99.90;;;;;;5091482;28;20043;-63
2023/07/29 06:43:38;;;;;;;7.82;4.05;;;18.70;99.90;;;;;;5089631;28;20044;-63
2023/07/29 06:46:03;;;;;;;9.80;4.90;;;18.70;99.90;;;;;;5090060;28;20051;-63
2023/07/29 06:48:29;;;;;;;10.57;4.35;;;18.80;99.90;;;;;;5091128;28;20040;-63
2023/07/29 06:50:55;;;;;;;10.52;4.28;;;18.90;99.90;;;;;;5090203;28;20048;-63
2023/07/29 06:53:21;;;;;;;11.93;4.20;;;19.00;99.90;;;;;;5091985;28;20048;-63
2023/07/29 06:55:47;;;;;;;8.95;3.83;;;19.00;99.90;;;;;;5090884;28;20404;-63
2023/07/29 06:58:12;;;;;;;8.77;3.60;;;19.10;99.90;;;;;;5089592;28;20073;-63
2023/07/29 07:00:38;;;;;;;12.55;4.13;;;19.10;99.90;;;;;;5090611;28;20135;-63
2023/07/29 07:03:04;;;;;;;13.85;4.47;;;19.00;99.90;;;;;;5086200;28;20058;-63
2023/07/29 07:05:30;;;;;;;8.93;3.65;;;18.90;99.90;;;;;;5086642;28;20040;-63
2023/07/29 07:07:55;;;;;;;8.85;3.97;;;18.90;99.90;;;;;;5072714;28;20048;-62
2023/07/29 07:10:21;;;;;;;9.80;4.63;;;18.90;99.90;;;;;;5118101;27;20134;-62
2023/07/29 07:12:47;;;;;;;8.65;4.47;;;18.80;99.90;;;;;;5090227;28;20456;-62
2023/07/29 07:15:12;;;;;;;9.70;4.85;;;18.80;99.90;;;;;;5091176;28;20036;-62
2023/07/29 07:17:38;;;;;;;13.23;4.35;;;18.80;99.90;;;;;;5123242;27;20056;-62
2023/07/29 07:20:05;;;;;;;8.57;4.53;;;18.80;99.90;;;;;;5119933;27;20120;-62
2023/07/29 07:22:30;;;;;;;9.60;4.05;;;18.80;99.90;;;;;;5087021;28;20039;-62
2023/07/29 07:24:56;;;;;;;8.20;4.38;;;18.90;99.90;;;;;;5089538;28;20044;-62
2023/07/29 07:27:25;;;;;;;10.93;4.32;;;19.10;99.90;;;;;;5089545;28;20036;-62
2023/07/29 07:29:51;;;;;;;8.68;3.53;;;19.20;99.90;;;;;;5089165;28;20492;-62
2023/07/29 07:32:16;;;;;;;11.60;4.50;;;19.30;99.90;;;;;;5088696;28;20044;-62
2023/07/29 07:34:42;;;;;;;11.95;4.55;;;19.30;99.90;;;;;;5088219;28;20044;-62
2023/07/29 07:37:08;;;;;;;6.78;3.45;;;19.40;99.90;;;;;;5072540;28;20051;-62
2023/07/29 07:39:33;;;;;;;11.95;4.55;;;19.50;99.90;;;;;;5088826;28;20104;-62
2023/07/29 07:41:59;;;;;;;10.70;4.18;;;19.60;99.90;;;;;;5090498;28;20109;-62
2023/07/29 07:44:26;;;;;;;13.23;4.25;;;19.60;99.90;;;;;;5090383;28;20122;-62
2023/07/29 07:46:53;;;;;;;8.80;3.65;;;19.70;99.90;;;;;;5088881;28;20113;-62
2023/07/29 07:49:19;;;;;;;8.15;3.10;;;19.90;99.90;;;;;;5088989;28;20051;-62
2023/07/29 07:51:44;;;;;;;8.30;3.28;;;20.00;99.90;;;;;;5119381;27;20047;-62
2023/07/29 07:54:10;;;;;;;8.05;3.38;;;20.00;99.90;;;;;;5121851;27;20044;-62
2023/07/29 07:56:36;;;;;;;7.85;3.10;;;19.90;99.90;;;;;;5118318;27;20044;-62
2023/07/29 07:59:01;;;;;;;10.30;3.08;;;19.80;99.90;;;;;;5086088;28;20044;-62
2023/07/29 08:01:27;;;;;;;9.23;3.58;;;19.70;99.90;;;;;;5088088;28;20200;-62
2023/07/29 08:03:53;;;;;;;6.57;2.97;;;19.70;99.90;;;;;;5116712;27;20082;-62
2023/07/29 08:06:18;;;;;;;7.72;3.65;;;19.70;99.90;;;;;;5121381;27;20061;-62
2023/07/29 08:08:44;;;;;;;7.88;3.08;;;19.70;99.90;;;;;;5087647;28;20039;-62
2023/07/29 08:11:10;;;;;;;8.88;3.40;;;19.70;99.90;;;;;;5090096;28;20036;-62
2023/07/29 08:13:36;;;;;;;8.02;3.42;;;19.70;99.90;;;;;;5119644;27;20032;-63
2023/07/29 08:16:01;;;;;;;9.75;3.72;;;19.70;99.90;;;;;;5121921;27;20078;-62
2023/07/29 08:18:27;;;;;;;9.57;3.40;;;19.70;99.90;;;;;;5089087;28;20071;-62
2023/07/29 08:21:03;;;;;;;7.90;3.33;;;19.80;99.90;;;;;;5089465;28;20040;-62
2023/07/29 08:23:30;;;;;;;8.20;3.17;;;19.90;99.90;;;;;;5088136;28;20489;-62
2023/07/29 08:26:01;;;;;;;7.72;2.97;;;19.90;99.90;;;;;;5088770;28;20442;-62
2023/07/29 08:28:35;;;;;;;11.40;4.03;;;20.00;99.90;;;;;;5089411;28;20043;-61
2023/07/29 08:31:01;;;;;;;10.65;3.75;;;20.00;99.90;;;;;;5088823;28;20050;-61
2023/07/29 08:33:27;;;;;;;7.03;2.60;;;20.00;99.90;;;;;;5088666;28;20036;-62
2023/07/29 08:35:53;;;;;;;9.88;3.40;;;20.00;99.90;;;;;;5089146;28;20036;-62
2023/07/29 08:38:19;;;;;;;10.07;3.20;;;20.00;99.90;;;;;;5088152;28;20051;-62
2023/07/29 08:41:07;;;;;;;7.55;2.72;;;20.10;99.90;;;;;;5087939;28;20072;-61
2023/07/29 08:43:34;;;;;;;12.68;3.55;;;20.10;99.90;;;;;;5083181;28;20123;-61
2023/07/29 08:46:00;;;;;;;7.57;2.75;;;20.10;99.90;;;;;;5084891;28;20128;-62
2023/07/29 08:48:41;;;;;;;6.20;2.17;;;20.00;99.90;;;;;;5091571;28;20032;-62
2023/07/29 08:51:09;;;;;;;9.10;2.60;;;20.10;99.90;;;;;;5056943;28;20511;-61
2023/07/29 08:53:35;;;;;;;8.55;2.15;;;20.30;99.90;;;;;;5124395;28;20051;-61
2023/07/29 08:56:02;;;;;;;7.78;2.08;;;20.60;99.90;;;;;;5091391;28;20472;-61
2023/07/29 08:58:28;;;;;;;5.88;2.53;;;20.70;99.90;;;;;;5090917;28;20378;-61
2023/07/29 09:00:54;;;;;;;6.50;2.63;;;20.80;99.90;;;;;;5091068;28;20119;-61
2023/07/29 09:03:20;;;;;;;6.00;2.47;;;20.90;99.90;;;;;;5102172;28;20139;-60
2023/07/29 09:05:46;;;;;;;4.80;2.00;;;20.90;99.90;;;;;;5090134;28;20497;-61
2023/07/29 09:08:12;;;;;;;7.75;2.15;;;20.90;99.90;;;;;;5090812;28;20082;-61
2023/07/29 09:10:38;;;;;;;4.05;1.88;;;21.00;99.90;;;;;;5090296;28;20506;-61
2023/07/29 09:13:04;;;;;;;6.40;2.30;;;21.00;99.90;;;;;;5091231;28;20036;-62
2023/07/29 09:15:31;;;;;;;7.50;2.13;;;21.00;99.90;;;;;;5091088;28;20097;-63
2023/07/29 09:17:58;;;;;;;12.18;2.30;;;21.00;99.90;;;;;;5083975;28;20066;-61
2023/07/29 09:20:27;;;;;;;5.05;1.98;;;20.90;99.90;;;;;;5090308;28;20114;-63
2023/07/29 09:23:02;;;;;;;6.03;1.90;;;20.70;99.90;;;;;;5089945;28;20036;-61
2023/07/29 09:25:29;;;;;;;7.68;2.58;;;20.70;99.90;;;;;;5090770;28;20040;-61
2023/07/29 09:28:00;;;;;;;5.47;2.03;;;20.60;99.90;;;;;;5097708;28;20035;-62
2023/07/29 09:30:25;;;;;;;6.10;2.50;;;20.60;99.90;;;;;;5112250;28;20388;-62
2023/07/29 09:32:58;;;;;;;5.70;2.58;;;20.70;99.90;;;;;;5094918;28;20048;-62
2023/07/29 09:35:32;;;;;;;7.97;2.40;;;20.80;99.90;;;;;;5092020;28;20415;-60
2023/07/29 09:37:57;;;;;;;5.72;2.33;;;20.80;99.90;;;;;;5090693;28;20115;-61
2023/07/29 09:40:23;;;;;;;8.32;2.00;;;20.70;99.90;;;;;;5091177;28;20119;-62
2023/07/29 09:42:54;;;;;;;10.38;2.15;;;20.70;99.90;;;;;;5089768;28;20055;-62
2023/07/29 09:45:24;;;;;;;5.50;1.95;;;20.70;99.90;;;;;;5096337;28;20038;-62
2023/07/29 09:47:51;;;;;;;7.00;2.85;;;20.60;99.90;;;;;;5110619;28;20118;-62
2023/07/29 09:50:17;;;;;;;6.93;2.00;;;20.60;99.90;;;;;;5105690;28;20040;-63
2023/07/29 09:52:43;;;;;;;5.25;1.88;;;20.70;99.90;;;;;;5090078;28;20082;-63
2023/07/29 09:55:16;;;;;;;4.95;1.83;;;20.80;99.90;;;;;;5073601;28;20089;-62
2023/07/29 09:57:43;;;;;;;5.22;2.03;;;20.80;99.90;;;;;;5092002;28;20388;-63
2023/07/29 10:00:11;;;;;;;5.28;1.77;;;20.90;99.90;;;;;;5094445;28;20075;-62
2023/07/29 10:02:42;;;;;;;5.93;1.92;;;20.90;99.90;;;;;;5104957;28;20409;-63
2023/07/29 10:05:09;;;;;;;6.90;2.13;;;21.00;99.90;;;;;;5093252;28;20048;-62
2023/07/29 10:07:39;;;;;;;6.10;2.80;;;21.10;99.90;;;;;;5091854;28;20047;-62
2023/07/29 10:10:06;;;;;;;13.27;3.40;;;21.30;99.90;;;;;;5093625;28;20047;-64
2023/07/29 10:12:33;;;;;;;7.05;2.35;;;21.30;99.90;;;;;;5092658;28;20036;-64
2023/07/29 10:15:01;;;;;;;4.88;1.90;;;21.40;99.90;;;;;;5094091;28;20420;-63
2023/07/29 10:17:27;;;;;;;6.55;2.15;;;21.40;99.90;;;;;;5093785;28;20123;-63
2023/07/29 10:19:55;;;;;;;6.50;2.40;;;21.60;99.90;;;;;;5093639;28;20048;-63
2023/07/29 10:22:24;;;;;;;5.93;2.10;;;21.70;99.90;;;;;;5094149;28;20480;-63
2023/07/29 10:24:53;;;;;;;4.90;2.00;;;21.90;99.90;;;;;;5076249;28;20048;-62
2023/07/29 10:27:19;;;;;;;8.52;2.47;;;21.90;99.90;;;;;;5092117;28;20076;-62
2023/07/29 10:29:45;;;;;;;5.00;1.77;;;22.10;99.90;;;;;;5092727;28;20400;-62
2023/07/29 10:32:12;;;;;;;6.63;1.63;;;22.20;99.90;;;;;;5094931;28;20483;-61
2023/07/29 10:34:38;;;;;;;5.03;1.60;;;22.20;99.90;;;;;;5092863;28;20042;-61
2023/07/29 10:37:04;;;;;;;7.28;3.08;;;22.30;99.90;;;;;;5095145;28;20484;-65
2023/07/29 10:39:40;;;;;;;4.60;1.67;;;22.20;99.90;;;;;;5093317;28;20044;-61
2023/07/29 10:42:06;;;;;;;5.35;2.08;;;21.90;99.90;;;;;;5093975;28;20429;-62
2023/07/29 10:44:41;;;;;;;7.97;2.88;;;21.50;99.90;;;;;;5092598;28;20488;-61
2023/07/29 10:47:17;;;;;;;6.80;1.90;;;21.10;99.90;;;;;;5092642;28;20035;-62
2023/07/29 10:49:45;;;;;;;12.88;4.97;;;20.70;99.90;;;;;;5091917;28;20120;-63
2023/07/29 10:52:29;;;;;;;18.50;7.22;;;20.80;99.90;;;;;;5093224;28;20121;-63
2023/07/29 10:54:58;;;;;;;7.60;2.38;;;21.00;99.90;;;;;;5093938;28;20087;-63
2023/07/29 10:57:34;;;;;;;8.32;2.85;;;21.30;99.90;;;;;;5092226;28;20055;-60
2023/07/29 11:00:00;;;;;;;7.03;2.05;;;21.50;99.90;;;;;;5094127;28;20486;-60
2023/07/29 11:02:31;;;;;;;5.80;1.70;;;21.70;99.90;;;;;;5092085;28;20466;-61
2023/07/29 11:04:57;;;;;;;4.60;1.60;;;22.00;99.90;;;;;;5093816;28;20050;-61
2023/07/29 11:07:27;;;;;;;4.97;1.80;;;22.20;99.90;;;;;;5094089;28;20047;-61
2023/07/29 11:09:58;;;;;;;8.20;2.20;;;22.10;99.90;;;;;;5092758;28;20053;-62
2023/07/29 11:12:33;;;;;;;8.05;1.52;;;22.00;99.90;;;;;;5092116;28;20040;-61
2023/07/29 11:15:26;;;;;;;5.57;2.03;;;21.80;99.90;;;;;;5087998;28;20811;-61
2023/07/29 11:17:58;;;;;;;4.97;2.10;;;21.60;99.90;;;;;;5091958;28;20493;-61
2023/07/29 11:20:33;;;;;;;5.40;2.03;;;21.40;99.90;;;;;;5094410;28;20042;-60
2023/07/29 11:23:01;;;;;;;6.93;2.17;;;21.20;99.90;;;;;;5093277;28;20079;-60
2023/07/29 11:25:28;;;;;;;6.35;2.40;;;20.90;99.90;;;;;;5074968;28;20048;-61
2023/07/29 11:27:56;;;;;;;4.90;1.88;;;20.60;99.90;;;;;;5093412;28;20032;-60
2023/07/29 11:30:29;;;;;;;6.70;2.67;;;20.40;99.90;;;;;;5092383;28;20076;-61
2023/07/29 11:32:55;;;;;;;4.40;1.95;;;20.10;99.90;;;;;;5092375;28;20036;-61
2023/07/29 11:35:21;;;;;;;6.55;1.88;;;19.90;99.90;;;;;;5092216;28;20039;-61
2023/07/29 11:37:49;;;;;;;6.63;2.63;;;19.70;99.90;;;;;;5090814;28;20101;-60
2023/07/29 11:40:17;;;;;;;4.68;2.10;;;19.60;99.90;;;;;;5093532;28;20083;-60
2023/07/29 11:42:44;;;;;;;4.47;1.90;;;19.50;99.90;;;;;;5091929;28;20431;-60
2023/07/29 11:45:10;;;;;;;8.60;2.20;;;19.50;99.90;;;;;;5092539;28;20043;-61
2023/07/29 11:47:37;;;;;;;4.95;2.20;;;19.60;99.90;;;;;;5092015;28;20035;-60
2023/07/29 11:50:09;;;;;;;4.18;1.63;;;19.80;99.90;;;;;;5075097;28;20052;-60
2023/07/29 11:52:36;;;;;;;7.63;1.88;;;20.00;99.90;;;;;;5074313;28;20123;-61
2023/07/29 11:55:03;;;;;;;3.58;1.48;;;20.00;99.90;;;;;;5074874;28;20047;-60
2023/07/29 11:57:30;;;;;;;4.50;1.70;;;20.10;99.90;;;;;;5092925;28;20059;-60
2023/07/29 11:59:56;;;;;;;3.83;1.63;;;20.30;99.90;;;;;;5091913;28;20434;-60
2023/07/29 12:02:23;;;;;;;7.05;2.50;;;20.50;99.90;;;;;;5074743;28;20079;-60
2023/07/29 12:04:50;;;;;;;6.53;1.80;;;20.50;99.90;;;;;;5092285;28;20093;-60
2023/07/29 12:07:18;;;;;;;5.10;1.90;;;20.40;99.90;;;;;;5090721;28;20397;-59
2023/07/29 12:09:45;;;;;;;8.48;2.70;;;20.40;99.90;;;;;;5091012;28;20039;-60
2023/07/29 12:12:11;;;;;;;7.70;2.03;;;20.20;99.90;;;;;;5092913;28;20097;-60
2023/07/29 12:14:36;;;;;;;7.13;1.75;;;20.10;99.90;;;;;;5091929;28;20360;-60
2023/07/29 12:17:04;;;;;;;4.82;1.95;;;20.10;99.90;;;;;;5091432;28;20119;-60
2023/07/29 12:19:34;;;;;;;4.93;1.85;;;20.10;99.90;;;;;;5090894;28;20073;-60
2023/07/29 12:22:04;;;;;;;4.72;2.03;;;20.20;99.90;;;;;;5091698;28;20051;-59
2023/07/29 12:24:35;;;;;;;4.00;1.70;;;20.30;99.90;;;;;;5091093;28;20055;-60
2023/07/29 12:27:01;;;;;;;3.88;1.58;;;20.30;99.90;;;;;;5091707;28;20115;-60
2023/07/29 12:29:27;;;;;;;6.05;1.90;;;20.30;99.90;;;;;;5091287;28;20503;-60
2023/07/29 12:32:01;;;;;;;6.30;1.85;;;20.30;99.90;;;;;;5092213;28;20035;-61
2023/07/29 12:34:28;;;;;;;4.68;1.70;;;20.30;99.90;;;;;;5091918;28;20032;-60
2023/07/29 12:36:55;;;;;;;4.80;1.70;;;20.30;99.90;;;;;;5074613;28;20489;-60
2023/07/29 12:39:29;;;;;;;4.38;1.67;;;20.30;99.90;;;;;;5090786;28;20052;-60
2023/07/29 12:41:58;;;;;;;3.05;1.05;;;20.40;99.90;;;;;;5090470;28;20067;-60
2023/07/29 12:44:34;;;;;;;5.45;1.70;;;20.70;99.90;;;;;;5092280;28;20044;-60